AL24 weather

Rotor Wing Inc Heliport
Mount Olive, Alabama, United States

Public forecast

Using degrees Fahrenheit for public forecast. Weather courtesy of forecast.io.

Closest aviation weather report (METAR) to Rotor Wing Inc Heliport

Closest report is Birmingham-Shuttlesworth International Airport, 9.0 nm (16.7 km) SE. Retrieved 2019/10/23 13:53 UTC (55 minutes ago):

KBHM 231353Z 00000KT 10SM CLR 12/06 A3023 RMK AO2 SLP233 T01170061

Closest aviation forecast (TAF) to Rotor Wing Inc Heliport

Closest forecast is Birmingham-Shuttlesworth International Airport, 9.0 nm (16.7 km) SE. Retrieved 2019/10/23 12:22 UTC (2 hours ago):

TAF KBHM 231120Z 2312/2412 VRB04KT P6SM SKC